createdAt,value
2024-01-12T00:00:37.831Z,100669.66
2024-01-12T00:01:35.102Z,100672.81
2024-01-12T00:02:32.785Z,100671.44
2024-01-12T00:03:31.051Z,100673.34
2024-01-12T00:04:29.164Z,100674.72
2024-01-12T00:05:26.441Z,100667.09
2024-01-12T00:06:24.599Z,100663.97
2024-01-12T00:07:22.741Z,100674.84
2024-01-12T00:08:20.622Z,100670.03
2024-01-12T00:09:18.214Z,100670.03
2024-01-12T00:10:15.722Z,100674.97
2024-01-12T00:11:13.774Z,100676.06
2024-01-12T00:12:11.931Z,100670.31
2024-01-12T00:13:10.041Z,100674.16
2024-01-12T00:14:07.689Z,100667.06
2024-01-12T00:15:06.690Z,100666.91
2024-01-12T00:16:07.847Z,100667.53
2024-01-12T00:17:05.428Z,100670.03
2024-01-12T00:18:03.714Z,100669.53
2024-01-12T00:19:02.731Z,100672.47
2024-01-12T00:20:00.444Z,100675.28
2024-01-12T00:20:57.847Z,100674.22
2024-01-12T00:21:56.424Z,100672.59
2024-01-12T00:22:57.578Z,100673.19
2024-01-12T00:23:55.374Z,100678.94
2024-01-12T00:24:55.445Z,100668.31
2024-01-12T00:25:52.456Z,100670.53
2024-01-12T00:26:50.623Z,100666.34
2024-01-12T00:27:47.632Z,100666.31
2024-01-12T00:28:44.604Z,100673.97
2024-01-12T00:29:41.782Z,100669.31
2024-01-12T00:30:38.984Z,100664.91
2024-01-12T00:31:36.272Z,100669.62
2024-01-12T00:32:33.543Z,100672.62
2024-01-12T00:33:30.960Z,100668.19
2024-01-12T00:34:29.171Z,100672.56
2024-01-12T00:35:26.865Z,100667.84
2024-01-12T00:36:27.065Z,100665.31
2024-01-12T00:37:25.276Z,100674.84
2024-01-12T00:38:23.555Z,100668.09
2024-01-12T00:39:21.125Z,100674.25
2024-01-12T00:40:19.401Z,100673.72
2024-01-12T00:41:17.305Z,100663.78
2024-01-12T00:42:14.628Z,100668.41
2024-01-12T00:43:12.730Z,100670.91
2024-01-12T00:44:10.731Z,100674.37
2024-01-12T00:45:09.475Z,100677.75
2024-01-12T00:46:08.433Z,100675.34
2024-01-12T00:47:06.790Z,100673.72
2024-01-12T00:48:06.457Z,100682.97
2024-01-12T00:49:04.854Z,100678.75
2024-01-12T00:50:03.289Z,100683.44
2024-01-12T00:51:01.776Z,100681.41
2024-01-12T00:51:59.538Z,100678.22
2024-01-12T00:52:57.413Z,100677.72
2024-01-12T00:53:55.442Z,100670.28
2024-01-12T00:54:53.685Z,100678.56
2024-01-12T00:55:51.447Z,100671.06
2024-01-12T00:56:49.198Z,100677.56
2024-01-12T00:57:47.372Z,100678.00
2024-01-12T00:58:46.676Z,100677.81
2024-01-12T00:59:44.891Z,100691.28
2024-01-12T01:00:42.942Z,100679.44
2024-01-12T01:01:41.058Z,100686.00
2024-01-12T01:02:39.192Z,100685.75
2024-01-12T01:03:38.965Z,100684.13
2024-01-12T01:04:37.344Z,100684.19
2024-01-12T01:05:36.105Z,100685.66
2024-01-12T01:06:34.562Z,100685.75
2024-01-12T01:07:33.386Z,100682.69
2024-01-12T01:08:31.755Z,100693.97
2024-01-12T01:09:30.091Z,100690.72
2024-01-12T01:10:28.405Z,100689.91
2024-01-12T01:11:26.581Z,100692.34
2024-01-12T01:12:24.352Z,100696.19
2024-01-12T01:13:21.820Z,100699.06
2024-01-12T01:14:19.830Z,100694.63
2024-01-12T01:15:18.276Z,100698.37
2024-01-12T01:16:16.257Z,100697.34
2024-01-12T01:17:14.080Z,100693.53
2024-01-12T01:18:12.496Z,100701.03
2024-01-12T01:19:10.861Z,100696.09
2024-01-12T01:20:12.264Z,100702.75
2024-01-12T01:21:10.510Z,100696.06
2024-01-12T01:22:08.265Z,100699.34
2024-01-12T01:23:05.930Z,100701.53
2024-01-12T01:24:04.255Z,100706.25
2024-01-12T01:25:03.632Z,100706.34
2024-01-12T01:26:01.688Z,100701.75
2024-01-12T01:26:59.756Z,100704.66
2024-01-12T01:27:57.655Z,100707.47
2024-01-12T01:28:57.312Z,100695.06
2024-01-12T01:29:55.523Z,100702.91
2024-01-12T01:30:53.462Z,100694.47
2024-01-12T01:31:51.385Z,100705.47
2024-01-12T01:32:53.184Z,100701.97
2024-01-12T01:33:51.411Z,100697.97
2024-01-12T01:34:49.808Z,100697.63
2024-01-12T01:35:47.907Z,100698.41
2024-01-12T01:36:46.001Z,100704.22
2024-01-12T01:37:44.545Z,100702.41
2024-01-12T01:38:43.014Z,100701.28
2024-01-12T01:39:41.130Z,100704.03
2024-01-12T01:40:39.184Z,100695.25
2024-01-12T01:41:38.630Z,100698.59
2024-01-12T01:42:36.336Z,100701.37
2024-01-12T01:43:34.127Z,100702.06
2024-01-12T01:44:32.012Z,100697.47
2024-01-12T01:45:29.642Z,100706.69
2024-01-12T01:46:28.123Z,100708.66
2024-01-12T01:47:26.207Z,100710.44
2024-01-12T01:48:24.183Z,100710.00
2024-01-12T01:49:22.705Z,100710.19
2024-01-12T01:50:20.872Z,100712.56
2024-01-12T01:51:19.142Z,100711.03
2024-01-12T01:52:17.524Z,100706.94
2024-01-12T01:53:15.677Z,100706.84
2024-01-12T01:54:14.109Z,100706.59
2024-01-12T01:55:13.619Z,100703.84
2024-01-12T01:56:11.774Z,100713.16
2024-01-12T01:57:10.464Z,100711.19
2024-01-12T01:58:08.470Z,100710.16
2024-01-12T01:59:06.935Z,100712.81
2024-01-12T02:00:06.034Z,100708.81
2024-01-12T02:01:04.464Z,100712.38
2024-01-12T02:02:04.800Z,100708.03
2024-01-12T02:03:03.541Z,100709.88
2024-01-12T02:04:02.125Z,100710.50
2024-01-12T02:05:00.703Z,100720.75
2024-01-12T02:06:00.480Z,100709.88
2024-01-12T02:06:58.233Z,100707.78
2024-01-12T02:07:56.559Z,100713.41
2024-01-12T02:08:54.964Z,100709.72
2024-01-12T02:09:53.539Z,100710.66
2024-01-12T02:10:53.812Z,100715.88
2024-01-12T02:11:51.835Z,100707.78
2024-01-12T02:12:50.284Z,100706.81
2024-01-12T02:13:48.999Z,100704.34
2024-01-12T02:14:47.652Z,100700.25
2024-01-12T02:15:45.925Z,100703.66
2024-01-12T02:16:44.468Z,100705.66
2024-01-12T02:17:42.898Z,100692.66
2024-01-12T02:18:41.516Z,100705.25
2024-01-12T02:19:39.849Z,100699.56
2024-01-12T02:20:38.246Z,100700.25
2024-01-12T02:21:36.615Z,100698.50
2024-01-12T02:22:35.004Z,100699.16
2024-01-12T02:23:33.303Z,100699.34
2024-01-12T02:24:31.702Z,100704.22
2024-01-12T02:25:30.563Z,100704.81
2024-01-12T02:26:29.153Z,100705.06
2024-01-12T02:27:27.688Z,100706.88
2024-01-12T02:28:25.738Z,100708.16
2024-01-12T02:29:24.005Z,100705.00
2024-01-12T02:30:22.566Z,100710.22
2024-01-12T02:31:20.790Z,100701.44
2024-01-12T02:32:19.304Z,100712.13
2024-01-12T02:33:17.784Z,100710.16
2024-01-12T02:34:16.960Z,100711.34
2024-01-12T02:35:14.722Z,100711.44
2024-01-12T02:36:13.233Z,100709.88
2024-01-12T02:37:11.550Z,100708.06
2024-01-12T02:38:09.379Z,100712.97
2024-01-12T02:39:07.549Z,100718.19
2024-01-12T02:40:06.672Z,100709.66
2024-01-12T02:41:05.005Z,100713.91
2024-01-12T02:42:03.578Z,100709.66
2024-01-12T02:43:03.138Z,100712.38
2024-01-12T02:44:01.773Z,100717.53
2024-01-12T02:45:00.269Z,100720.94
2024-01-12T02:45:58.353Z,100721.22
2024-01-12T02:46:57.041Z,100714.53
2024-01-12T02:47:55.222Z,100711.81
2024-01-12T02:48:54.285Z,100716.75
2024-01-12T02:49:53.074Z,100724.50
2024-01-12T02:50:51.571Z,100712.53
2024-01-12T02:51:50.379Z,100721.03
2024-01-12T02:52:48.801Z,100716.91
2024-01-12T02:53:46.831Z,100718.28
2024-01-12T02:54:47.308Z,100712.50
2024-01-12T02:55:45.840Z,100715.91
2024-01-12T02:56:44.612Z,100710.59
2024-01-12T02:57:42.632Z,100715.22
2024-01-12T02:58:41.297Z,100714.87
2024-01-12T02:59:39.735Z,100710.78
2024-01-12T03:00:38.331Z,100712.91
2024-01-12T03:01:36.697Z,100713.75
2024-01-12T03:02:35.073Z,100708.13
2024-01-12T03:03:33.593Z,100716.00
2024-01-12T03:04:32.049Z,100714.03
2024-01-12T03:05:30.511Z,100715.06
2024-01-12T03:06:28.578Z,100720.28
2024-01-12T03:07:26.375Z,100717.44
2024-01-12T03:08:24.550Z,100716.94
2024-01-12T03:09:24.763Z,100709.75
2024-01-12T03:10:22.721Z,100719.75
2024-01-12T03:11:21.244Z,100719.22
2024-01-12T03:12:19.546Z,100720.69
2024-01-12T03:13:17.975Z,100730.94
2024-01-12T03:14:16.693Z,100722.06
2024-01-12T03:15:15.241Z,100726.84
2024-01-12T03:16:25.600Z,100731.78
2024-01-12T03:17:24.049Z,100722.81
2024-01-12T03:18:24.054Z,100731.38
2024-01-12T03:19:23.358Z,100729.00
2024-01-12T03:20:22.239Z,100734.88
2024-01-12T03:21:20.656Z,100725.66
2024-01-12T03:22:19.163Z,100727.44
2024-01-12T03:23:17.693Z,100734.94
2024-01-12T03:24:15.403Z,100732.84
2024-01-12T03:25:14.778Z,100735.03
2024-01-12T03:26:13.522Z,100738.63
2024-01-12T03:27:12.102Z,100734.78
2024-01-12T03:28:10.510Z,100734.69
2024-01-12T03:29:08.366Z,100733.84
2024-01-12T03:30:07.089Z,100737.69
2024-01-12T03:31:06.229Z,100734.19
2024-01-12T03:32:05.267Z,100736.44
2024-01-12T03:33:03.588Z,100734.34
2024-01-12T03:34:01.973Z,100735.53
2024-01-12T03:35:00.784Z,100742.50
2024-01-12T03:36:02.188Z,100729.25
2024-01-12T03:37:00.641Z,100739.72
2024-01-12T03:37:58.892Z,100722.91
2024-01-12T03:38:56.952Z,100724.81
2024-01-12T03:39:55.606Z,100728.47
2024-01-12T03:40:53.695Z,100731.28
2024-01-12T03:41:51.934Z,100731.97
2024-01-12T03:42:49.880Z,100740.62
2024-01-12T03:43:48.411Z,100732.81
2024-01-12T03:44:47.138Z,100726.41
2024-01-12T03:45:45.235Z,100730.88
2024-01-12T03:46:43.769Z,100732.91
2024-01-12T03:47:42.226Z,100734.53
2024-01-12T03:48:42.346Z,100732.41
2024-01-12T03:49:40.986Z,100729.91
2024-01-12T03:50:38.889Z,100735.06
2024-01-12T03:51:37.747Z,100729.13
2024-01-12T03:52:36.558Z,100734.44
2024-01-12T03:53:35.087Z,100737.19
2024-01-12T03:54:33.512Z,100732.13
2024-01-12T03:55:31.940Z,100733.50
2024-01-12T03:56:30.451Z,100730.16
2024-01-12T03:57:28.797Z,100733.66
2024-01-12T03:58:27.044Z,100728.28
2024-01-12T03:59:25.970Z,100733.78
2024-01-12T04:00:24.924Z,100734.63
2024-01-12T04:01:24.731Z,100735.53
2024-01-12T04:02:23.365Z,100745.63
2024-01-12T04:03:21.957Z,100743.31
2024-01-12T04:04:20.377Z,100740.22
2024-01-12T04:05:18.694Z,100743.94
2024-01-12T04:06:16.094Z,100743.62
2024-01-12T04:07:14.491Z,100744.19
2024-01-12T04:08:12.530Z,100742.13
2024-01-12T04:09:14.870Z,100744.69
2024-01-12T04:10:13.297Z,100743.31
2024-01-12T04:11:11.700Z,100747.06
2024-01-12T04:12:10.780Z,100738.13
2024-01-12T04:13:09.678Z,100741.63
2024-01-12T04:14:07.606Z,100738.37
2024-01-12T04:15:06.089Z,100740.19
2024-01-12T04:16:03.998Z,100736.75
2024-01-12T04:17:02.178Z,100738.00
2024-01-12T04:18:00.606Z,100742.31
2024-01-12T04:18:59.315Z,100738.87
2024-01-12T04:19:58.050Z,100735.28
2024-01-12T04:20:56.529Z,100741.94
2024-01-12T04:21:54.850Z,100737.50
2024-01-12T04:22:53.427Z,100738.78
2024-01-12T04:23:51.884Z,100740.00
2024-01-12T04:24:50.114Z,100734.94
2024-01-12T04:25:51.276Z,100736.31
2024-01-12T04:26:49.701Z,100735.03
2024-01-12T04:27:47.996Z,100746.13
2024-01-12T04:28:46.593Z,100740.31
2024-01-12T04:29:45.139Z,100740.59
2024-01-12T04:30:42.488Z,100743.31
2024-01-12T04:31:42.416Z,100745.87
2024-01-12T04:32:39.616Z,100741.19
2024-01-12T04:33:37.125Z,100736.25
2024-01-12T04:34:38.082Z,100742.97
2024-01-12T04:35:35.141Z,100742.37
2024-01-12T04:36:32.476Z,100745.03
2024-01-12T04:37:29.644Z,100748.19
2024-01-12T04:38:27.901Z,100752.19
2024-01-12T04:39:25.346Z,100748.44
2024-01-12T04:40:22.593Z,100748.59
2024-01-12T04:41:20.280Z,100754.59
2024-01-12T04:42:17.725Z,100753.56
2024-01-12T04:43:14.943Z,100750.47
2024-01-12T04:44:12.253Z,100758.53
2024-01-12T04:45:11.007Z,100758.19
2024-01-12T04:46:08.603Z,100757.50
2024-01-12T04:47:06.725Z,100751.44
2024-01-12T04:48:04.244Z,100755.78
2024-01-12T04:49:01.856Z,100759.13
2024-01-12T04:49:59.091Z,100763.81
2024-01-12T04:50:57.165Z,100753.38
2024-01-12T04:51:54.717Z,100762.03
2024-01-12T04:52:53.481Z,100764.81
2024-01-12T04:53:50.845Z,100764.59
2024-01-12T04:54:48.002Z,100768.00
2024-01-12T04:55:45.457Z,100760.84
2024-01-12T04:56:42.698Z,100769.88
2024-01-12T04:57:40.048Z,100771.50
2024-01-12T04:58:37.706Z,100768.41
2024-01-12T04:59:34.879Z,100762.53
2024-01-12T05:00:32.133Z,100770.03
2024-01-12T05:01:29.357Z,100772.44
2024-01-12T05:02:26.538Z,100773.47
2024-01-12T05:03:23.789Z,100779.00
2024-01-12T05:04:21.876Z,100779.72
2024-01-12T05:05:19.671Z,100791.41
2024-01-12T05:06:17.370Z,100783.28
2024-01-12T05:07:15.120Z,100784.31
2024-01-12T05:08:12.500Z,100782.37
2024-01-12T05:09:09.638Z,100783.72
2024-01-12T05:10:08.425Z,100786.19
2024-01-12T05:11:05.909Z,100784.38
2024-01-12T05:12:06.464Z,100787.03
2024-01-12T05:13:03.960Z,100793.34
2024-01-12T05:14:01.370Z,100789.91
2024-01-12T05:14:58.561Z,100796.06
2024-01-12T05:15:55.875Z,100795.28
2024-01-12T05:16:52.984Z,100800.50
2024-01-12T05:17:50.197Z,100795.97
2024-01-12T05:18:47.741Z,100797.94
2024-01-12T05:19:45.283Z,100792.06
2024-01-12T05:20:42.569Z,100789.66
2024-01-12T05:21:40.041Z,100799.47
2024-01-12T05:22:37.844Z,100793.09
2024-01-12T05:23:35.179Z,100787.13
2024-01-12T05:24:32.377Z,100785.72
2024-01-12T05:25:30.006Z,100794.44
2024-01-12T05:26:27.272Z,100787.28
2024-01-12T05:27:24.469Z,100794.44
2024-01-12T05:28:21.693Z,100791.72
2024-01-12T05:29:18.890Z,100798.88
2024-01-12T05:30:16.170Z,100802.91
2024-01-12T05:31:14.880Z,100798.72
2024-01-12T05:32:12.764Z,100796.94
2024-01-12T05:33:10.065Z,100801.59
2024-01-12T05:34:07.498Z,100799.81
2024-01-12T05:35:05.334Z,100808.69
2024-01-12T05:36:03.418Z,100801.25
2024-01-12T05:37:00.734Z,100803.34
2024-01-12T05:37:57.880Z,100803.19
2024-01-12T05:38:55.105Z,100806.44
2024-01-12T05:39:52.321Z,100808.25
2024-01-12T05:40:49.583Z,100801.25
2024-01-12T05:41:46.948Z,100802.66
2024-01-12T05:42:44.432Z,100805.12
2024-01-12T05:43:41.718Z,100805.56
2024-01-12T05:44:38.980Z,100804.78
2024-01-12T05:45:36.451Z,100803.59
2024-01-12T05:46:33.763Z,100807.81
2024-01-12T05:47:31.061Z,100818.69
2024-01-12T05:48:28.866Z,100821.44
2024-01-12T05:49:26.510Z,100816.44
2024-01-12T05:50:23.761Z,100821.62
2024-01-12T05:51:21.975Z,100824.06
2024-01-12T05:52:19.171Z,100829.22
2024-01-12T05:53:18.125Z,100832.94
2024-01-12T05:54:16.235Z,100828.12
2024-01-12T05:55:13.824Z,100829.22
2024-01-12T05:56:11.763Z,100830.13
2024-01-12T05:57:09.118Z,100835.09
2024-01-12T05:58:06.291Z,100834.19
2024-01-12T05:59:04.308Z,100834.81
2024-01-12T06:00:03.619Z,100824.38
2024-01-12T06:01:01.126Z,100830.31
2024-01-12T06:01:58.321Z,100834.75
2024-01-12T06:02:55.550Z,100827.47
2024-01-12T06:03:52.745Z,100830.22
2024-01-12T06:04:50.024Z,100832.41
2024-01-12T06:05:50.361Z,100833.78
2024-01-12T06:06:47.897Z,100827.19
2024-01-12T06:07:45.975Z,100831.06
2024-01-12T06:08:43.649Z,100838.16
2024-01-12T06:09:41.802Z,100843.81
2024-01-12T06:10:39.301Z,100838.31
2024-01-12T06:11:36.777Z,100835.66
2024-01-12T06:12:33.951Z,100838.22
2024-01-12T06:13:31.263Z,100846.09
2024-01-12T06:14:28.600Z,100842.56
2024-01-12T06:15:25.965Z,100843.87
2024-01-12T06:16:23.235Z,100847.09
2024-01-12T06:17:20.634Z,100846.41
2024-01-12T06:18:18.702Z,100847.63
2024-01-12T06:19:16.239Z,100841.00
2024-01-12T06:20:13.727Z,100842.62
2024-01-12T06:21:11.072Z,100851.69
2024-01-12T06:22:08.572Z,100853.38
2024-01-12T06:23:07.198Z,100847.34
2024-01-12T06:24:04.625Z,100848.16
2024-01-12T06:25:01.930Z,100848.00
2024-01-12T06:26:00.177Z,100849.41
2024-01-12T06:26:57.478Z,100852.28
2024-01-12T06:27:55.189Z,100859.28
2024-01-12T06:28:52.457Z,100857.03
2024-01-12T06:29:49.655Z,100856.72
2024-01-12T06:30:46.965Z,100860.75
2024-01-12T06:31:44.552Z,100851.34
2024-01-12T06:32:41.922Z,100854.47
2024-01-12T06:33:39.261Z,100849.03
2024-01-12T06:34:40.608Z,100849.09
2024-01-12T06:35:37.938Z,100857.19
2024-01-12T06:36:35.172Z,100848.41
2024-01-12T06:37:32.383Z,100851.06
2024-01-12T06:38:29.604Z,100851.38
2024-01-12T06:39:26.945Z,100851.88
2024-01-12T06:40:24.505Z,100850.19
2024-01-12T06:41:21.803Z,100847.41
2024-01-12T06:42:19.466Z,100851.75
2024-01-12T06:43:16.769Z,100854.88
2024-01-12T06:44:15.320Z,100850.28
2024-01-12T06:45:13.240Z,100850.66
2024-01-12T06:46:10.488Z,100849.34
2024-01-12T06:47:09.068Z,100848.97
2024-01-12T06:48:06.692Z,100847.34
2024-01-12T06:49:04.041Z,100852.69
2024-01-12T06:50:02.343Z,100859.22
2024-01-12T06:50:59.715Z,100860.78
2024-01-12T06:51:57.029Z,100860.00
2024-01-12T06:52:54.154Z,100858.75
2024-01-12T06:53:51.427Z,100868.75
2024-01-12T06:54:48.542Z,100862.16
2024-01-12T06:55:45.785Z,100861.00
2024-01-12T06:56:43.091Z,100865.28
2024-01-12T06:57:40.379Z,100861.44
2024-01-12T06:58:37.681Z,100861.28
2024-01-12T06:59:36.065Z,100866.91
2024-01-12T07:00:33.386Z,100868.69
2024-01-12T07:01:30.446Z,100868.38
2024-01-12T07:02:27.657Z,100870.69
2024-01-12T07:03:25.081Z,100876.78
2024-01-12T07:04:22.524Z,100882.91
2024-01-12T07:05:19.715Z,100885.31
2024-01-12T07:06:16.909Z,100881.72
2024-01-12T07:07:14.436Z,100883.38
2024-01-12T07:08:11.902Z,100888.66
2024-01-12T07:09:13.296Z,100884.03
2024-01-12T07:10:12.861Z,100886.28
2024-01-12T07:11:10.079Z,100886.22
2024-01-12T07:12:07.534Z,100881.91
2024-01-12T07:13:04.952Z,100882.69
2024-01-12T07:14:02.037Z,100881.25
2024-01-12T07:14:59.562Z,100887.94
2024-01-12T07:15:56.797Z,100882.88
2024-01-12T07:16:54.004Z,100885.38
2024-01-12T07:17:52.378Z,100889.50
2024-01-12T07:18:50.024Z,100884.09
2024-01-12T07:19:47.699Z,100893.06
2024-01-12T07:20:44.981Z,100887.38
2024-01-12T07:21:42.332Z,100891.72
2024-01-12T07:22:39.560Z,100889.91
2024-01-12T07:23:36.852Z,100893.00
2024-01-12T07:24:34.067Z,100895.66
2024-01-12T07:25:33.092Z,100886.66
2024-01-12T07:26:30.456Z,100892.50
2024-01-12T07:27:27.603Z,100893.63
2024-01-12T07:28:26.365Z,100895.81
2024-01-12T07:29:23.989Z,100900.97
2024-01-12T07:30:21.836Z,100901.81
2024-01-12T07:31:20.000Z,100901.75
2024-01-12T07:32:17.294Z,100905.75
2024-01-12T07:33:14.953Z,100896.84
2024-01-12T07:34:12.322Z,100896.84
2024-01-12T07:35:11.511Z,100903.69
2024-01-12T07:36:10.243Z,100897.44
2024-01-12T07:37:10.375Z,100898.31
2024-01-12T07:38:08.118Z,100902.41
2024-01-12T07:39:05.553Z,100895.56
2024-01-12T07:40:04.171Z,100893.22
2024-01-12T07:41:02.405Z,100894.09
2024-01-12T07:42:00.062Z,100899.91
2024-01-12T07:42:57.533Z,100896.75
2024-01-12T07:43:55.641Z,100899.31
2024-01-12T07:44:53.454Z,100899.22
2024-01-12T07:45:50.932Z,100911.56
2024-01-12T07:46:48.075Z,100912.41
2024-01-12T07:47:45.461Z,100912.22
2024-01-12T07:48:42.994Z,100915.50
2024-01-12T07:49:40.352Z,100922.41
2024-01-12T07:50:38.179Z,100915.31
2024-01-12T07:51:36.432Z,100913.41
2024-01-12T07:52:33.748Z,100909.66
2024-01-12T07:53:31.658Z,100909.44
2024-01-12T07:54:29.119Z,100914.87
2024-01-12T07:55:26.541Z,100914.75
2024-01-12T07:56:24.316Z,100916.03
2024-01-12T07:57:21.406Z,100913.97
2024-01-12T07:58:21.025Z,100919.28
2024-01-12T07:59:18.351Z,100911.75
2024-01-12T08:00:16.240Z,100912.25
2024-01-12T08:01:14.908Z,100919.78
2024-01-12T08:02:12.786Z,100912.03
2024-01-12T08:03:09.970Z,100915.19
2024-01-12T08:04:07.200Z,100915.19
2024-01-12T08:05:05.692Z,100915.78
2024-01-12T08:06:03.024Z,100920.81
2024-01-12T08:07:01.056Z,100919.41
2024-01-12T08:07:58.630Z,100925.41
2024-01-12T08:13:06.144Z,100924.94
2024-01-12T08:14:01.905Z,100929.97
2024-01-12T08:14:59.546Z,100925.72
2024-01-12T08:15:56.839Z,100926.56
2024-01-12T08:16:55.727Z,100926.47
2024-01-12T08:17:53.068Z,100926.13
2024-01-12T08:18:50.418Z,100929.53
2024-01-12T08:19:48.654Z,100932.19
2024-01-12T08:20:47.021Z,100927.44
2024-01-12T08:21:49.566Z,100933.62
2024-01-12T08:22:52.749Z,100934.28
2024-01-12T08:23:50.250Z,100930.47
2024-01-12T08:24:47.377Z,100935.56
2024-01-12T08:25:44.710Z,100934.75
2024-01-12T08:26:42.002Z,100934.81
2024-01-12T08:27:39.284Z,100934.00
2024-01-12T08:28:36.325Z,100934.47
2024-01-12T08:29:33.858Z,100930.03
2024-01-12T08:30:31.210Z,100927.75
2024-01-12T08:31:30.411Z,100924.75
2024-01-12T08:32:30.679Z,100923.91
2024-01-12T08:33:29.892Z,100917.91
2024-01-12T08:34:28.117Z,100916.84
2024-01-12T08:35:27.651Z,100911.53
2024-01-12T08:36:24.871Z,100921.25
2024-01-12T08:37:22.240Z,100920.94
2024-01-12T08:38:20.101Z,100913.62
2024-01-12T08:39:52.789Z,100914.47
2024-01-12T08:40:40.473Z,100916.69
2024-01-12T08:41:39.042Z,100919.81
2024-01-12T08:42:39.007Z,100931.09
2024-01-12T08:43:38.036Z,100925.09
2024-01-12T08:44:37.266Z,100927.97
2024-01-12T08:45:35.752Z,100921.81
2024-01-12T08:46:42.483Z,100920.84
2024-01-12T08:47:39.821Z,100927.97
2024-01-12T08:48:37.621Z,100926.47
2024-01-12T08:49:35.309Z,100930.72
2024-01-12T08:50:32.785Z,100930.06
2024-01-12T08:51:37.680Z,100927.03
2024-01-12T08:52:35.483Z,100929.13
2024-01-12T08:53:32.958Z,100932.81
2024-01-12T08:54:30.344Z,100938.69
2024-01-12T08:56:02.200Z,100935.56
2024-01-12T08:56:51.801Z,100938.13
2024-01-12T08:57:49.238Z,100949.03
2024-01-12T08:58:48.423Z,100947.41
2024-01-12T08:59:46.128Z,100944.94
2024-01-12T09:00:43.500Z,100939.25
2024-01-12T09:01:40.837Z,100943.13
2024-01-12T09:02:38.189Z,100935.81
2024-01-12T09:03:35.663Z,100931.75
2024-01-12T09:04:33.085Z,100937.47
2024-01-12T09:05:30.819Z,100932.81
2024-01-12T09:06:28.747Z,100934.31
2024-01-12T09:07:26.274Z,100932.22
2024-01-12T09:08:23.529Z,100936.53
2024-01-12T09:09:20.698Z,100937.09
2024-01-12T09:10:17.900Z,100934.16
2024-01-12T09:11:15.070Z,100933.84
2024-01-12T09:12:12.405Z,100928.81
2024-01-12T09:13:09.905Z,100941.19
2024-01-12T09:14:10.258Z,100935.28
2024-01-12T09:15:09.738Z,100927.69
2024-01-12T09:16:10.047Z,100931.97
2024-01-12T09:17:07.225Z,100940.03
2024-01-12T09:18:05.839Z,100935.56
2024-01-12T09:19:04.078Z,100929.13
2024-01-12T09:20:01.742Z,100939.25
2024-01-12T09:20:59.038Z,100933.59
2024-01-12T09:21:56.172Z,100931.31
2024-01-12T09:22:53.311Z,100927.97
2024-01-12T09:23:50.821Z,100933.38
2024-01-12T09:24:48.035Z,100932.25
2024-01-12T09:25:45.545Z,100930.62
2024-01-12T09:26:42.828Z,100934.88
2024-01-12T09:27:40.044Z,100930.53
2024-01-12T09:28:40.845Z,100930.94
2024-01-12T09:29:37.895Z,100937.75
2024-01-12T09:30:36.367Z,100939.47
2024-01-12T09:31:33.795Z,100930.81
2024-01-12T09:32:31.412Z,100932.34
2024-01-12T09:33:29.679Z,100930.44
2024-01-12T09:34:27.182Z,100931.56
2024-01-12T09:35:25.411Z,100931.00
2024-01-12T09:36:22.660Z,100932.25
2024-01-12T09:37:19.945Z,100927.41
2024-01-12T09:38:17.379Z,100931.03
2024-01-12T09:39:16.353Z,100925.72
2024-01-12T09:40:13.604Z,100924.75
2024-01-12T09:41:11.573Z,100917.81
2024-01-12T09:42:10.850Z,100919.06
2024-01-12T09:43:15.452Z,100921.53
2024-01-12T09:44:13.554Z,100923.31
2024-01-12T09:45:20.251Z,100920.66
2024-01-12T09:46:22.410Z,100926.09
2024-01-12T09:47:19.519Z,100932.06
2024-01-12T09:48:16.823Z,100920.88
2024-01-12T09:49:14.160Z,100917.72
2024-01-12T09:50:12.109Z,100925.22
2024-01-12T09:51:09.384Z,100922.56
2024-01-12T09:52:09.208Z,100926.38
2024-01-12T09:53:06.868Z,100925.06
2024-01-12T09:54:04.171Z,100928.44
2024-01-12T09:55:01.413Z,100924.16
2024-01-12T09:56:05.961Z,100929.97
2024-01-12T09:57:09.601Z,100926.38
2024-01-12T09:58:08.937Z,100941.00
2024-01-12T09:59:06.806Z,100922.00
2024-01-12T10:00:06.969Z,100931.22
2024-01-12T10:01:04.747Z,100934.12
2024-01-12T10:02:02.634Z,100925.41
2024-01-12T10:03:00.022Z,100922.56
2024-01-12T10:03:57.480Z,100910.56
2024-01-12T10:04:54.608Z,100914.19
2024-01-12T10:05:52.017Z,100910.56
2024-01-12T10:06:49.758Z,100914.38
2024-01-12T10:07:47.509Z,100914.75
2024-01-12T10:08:45.002Z,100914.97
2024-01-12T10:09:42.470Z,100905.53
2024-01-12T10:10:40.594Z,100906.00
2024-01-12T10:11:38.371Z,100901.34
2024-01-12T10:12:36.017Z,100898.66
2024-01-12T10:13:33.499Z,100897.41
2024-01-12T10:14:30.864Z,100903.38
2024-01-12T10:15:28.173Z,100904.53
2024-01-12T10:16:30.541Z,100903.72
2024-01-12T10:17:27.962Z,100904.75
2024-01-12T10:18:25.789Z,100896.09
2024-01-12T10:19:24.036Z,100900.06
2024-01-12T10:20:23.881Z,100898.91
2024-01-12T10:21:21.282Z,100891.91
2024-01-12T10:22:18.928Z,100897.66
2024-01-12T10:23:22.718Z,100897.97
2024-01-12T10:24:23.154Z,100899.47
2024-01-12T10:25:20.497Z,100895.38
2024-01-12T10:26:18.167Z,100900.41
2024-01-12T10:27:15.638Z,100899.06
2024-01-12T10:28:18.922Z,100889.72
2024-01-12T10:29:16.483Z,100881.84
2024-01-12T10:30:14.728Z,100886.44
2024-01-12T10:31:12.280Z,100885.19
2024-01-12T10:32:12.462Z,100889.66
2024-01-12T10:33:09.818Z,100888.41
2024-01-12T10:34:12.305Z,100886.50
2024-01-12T10:35:11.388Z,100890.87
2024-01-12T10:36:14.933Z,100886.59
2024-01-12T10:37:13.858Z,100886.31
2024-01-12T10:38:11.780Z,100889.41
2024-01-12T10:39:11.338Z,100888.44
2024-01-12T10:40:09.939Z,100886.53
2024-01-12T10:41:08.879Z,100888.78
2024-01-12T10:42:09.721Z,100883.69
2024-01-12T10:43:12.582Z,100887.19
2024-01-12T10:44:10.532Z,100888.56
2024-01-12T10:45:08.903Z,100889.62
2024-01-12T10:46:18.274Z,100879.31
2024-01-12T10:47:20.210Z,100887.41
2024-01-12T10:48:21.794Z,100882.62
2024-01-12T10:49:24.470Z,100877.41
2024-01-12T10:50:24.566Z,100881.25
2024-01-12T10:51:23.463Z,100885.63
2024-01-12T10:52:33.335Z,100883.91
2024-01-12T10:53:55.640Z,100887.31
2024-01-12T10:54:59.228Z,100882.22
2024-01-12T10:56:00.076Z,100883.06
2024-01-12T10:56:57.407Z,100877.41
2024-01-12T10:57:55.661Z,100875.81
2024-01-12T10:58:53.152Z,100866.50
2024-01-12T10:59:51.445Z,100864.31
2024-01-12T11:00:49.778Z,100866.84
2024-01-12T11:01:48.423Z,100866.09
2024-01-12T11:02:48.821Z,100865.91
2024-01-12T11:03:46.736Z,100865.06
2024-01-12T11:04:44.699Z,100869.41
2024-01-12T11:05:42.043Z,100866.72
2024-01-12T11:06:40.484Z,100870.81
2024-01-12T11:07:42.766Z,100870.16
2024-01-12T11:08:41.530Z,100876.00
2024-01-12T11:09:39.078Z,100876.88
2024-01-12T11:10:38.081Z,100873.34